RLB2132 RPLC-RPVV
Flight info
| Callsign | RLB2132 |
|---|---|
| Flight time | 0h 52m |
| Altitude | 16000 |
| Route | REPAT4R REPAT DCT BUCAL M646 OLRAX |
| Aircraft | AT76/M-SDFGIRY/S |
Departure
| Time | 2026-05-09 00:43 |
|---|---|
| Airport | Clark International Airport / Clark Air Base (RPLC) |
Arrival
| Time | 2026-05-09 01:36 |
|---|---|
| Airport | Francisco B. Reyes (Busuanga) Airport (RPVV) |
| Time | Latitude | Longitude | Altitude | Speed | Heading |
|---|---|---|---|---|---|
| 2026-05-09 00:20 | 15.19347 | 120.55939 | 446 ft | 0 kts | 290° |
| 2026-05-09 00:32 | 15.19344 | 120.55947 | 438 ft | 4 kts | 290° |
| 2026-05-09 00:32 | 15.19335 | 120.55973 | 446 ft | 4 kts | 288° |
| 2026-05-09 00:32 | 15.19330 | 120.55999 | 446 ft | 4 kts | 259° |
| 2026-05-09 00:32 | 15.19341 | 120.56020 | 442 ft | 3 kts | 203° |
| 2026-05-09 00:33 | 15.19348 | 120.56023 | 435 ft | 0 kts | 200° |
| 2026-05-09 00:35 | 15.19346 | 120.56022 | 434 ft | 2 kts | 200° |
| 2026-05-09 00:35 | 15.19313 | 120.56010 | 441 ft | 8 kts | 200° |
| 2026-05-09 00:36 | 15.19250 | 120.55985 | 446 ft | 11 kts | 200° |
| 2026-05-09 00:36 | 15.19168 | 120.55958 | 446 ft | 13 kts | 183° |
| 2026-05-09 00:36 | 15.19112 | 120.56004 | 431 ft | 11 kts | 142° |
| 2026-05-09 00:36 | 15.19035 | 120.55992 | 434 ft | 13 kts | 201° |
| 2026-05-09 00:37 | 15.18949 | 120.55958 | 437 ft | 14 kts | 201° |
| 2026-05-09 00:37 | 15.18857 | 120.55921 | 443 ft | 15 kts | 201° |
| 2026-05-09 00:37 | 15.18760 | 120.55883 | 446 ft | 15 kts | 201° |
| 2026-05-09 00:37 | 15.18662 | 120.55844 | 446 ft | 15 kts | 199° |
| 2026-05-09 00:38 | 15.18559 | 120.55803 | 446 ft | 16 kts | 201° |
| 2026-05-09 00:38 | 15.18455 | 120.55761 | 446 ft | 16 kts | 200° |
| 2026-05-09 00:38 | 15.18352 | 120.55720 | 432 ft | 16 kts | 201° |
| 2026-05-09 00:38 | 15.18249 | 120.55679 | 436 ft | 16 kts | 200° |
| 2026-05-09 00:39 | 15.18155 | 120.55642 | 446 ft | 16 kts | 202° |
| 2026-05-09 00:39 | 15.18050 | 120.55600 | 446 ft | 16 kts | 201° |
| 2026-05-09 00:39 | 15.17946 | 120.55559 | 446 ft | 14 kts | 201° |
| 2026-05-09 00:39 | 15.17850 | 120.55521 | 446 ft | 15 kts | 200° |
| 2026-05-09 00:40 | 15.17750 | 120.55482 | 442 ft | 16 kts | 201° |
| 2026-05-09 00:40 | 15.17673 | 120.55451 | 446 ft | 10 kts | 201° |
| 2026-05-09 00:40 | 15.17612 | 120.55476 | 439 ft | 11 kts | 123° |
| 2026-05-09 00:41 | 15.17524 | 120.55635 | 446 ft | 14 kts | 119° |
| 2026-05-09 00:41 | 15.17475 | 120.55729 | 446 ft | 15 kts | 118° |
| 2026-05-09 00:41 | 15.17487 | 120.55797 | 447 ft | 9 kts | 43° |
| 2026-05-09 00:41 | 15.17529 | 120.55820 | 447 ft | 0 kts | 21° |
| 2026-05-09 00:42 | 15.17530 | 120.55820 | 447 ft | 1 kts | 20° |
| 2026-05-09 00:42 | 15.17591 | 120.55843 | 446 ft | 0 kts | 19° |
| 2026-05-09 00:42 | 15.17707 | 120.55890 | 445 ft | 47 kts | 20° |
| 2026-05-09 00:43 | 15.18200 | 120.56085 | 450 ft | 105 kts | 21° |
| 2026-05-09 00:43 | 15.19003 | 120.56390 | 708 ft | 130 kts | 20° |
| 2026-05-09 00:43 | 15.19638 | 120.56635 | 693 ft | 164 kts | 20° |
| 2026-05-09 00:43 | 15.20733 | 120.57098 | 1239 ft | 166 kts | 23° |
| 2026-05-09 00:44 | 15.21809 | 120.57554 | 1879 ft | 171 kts | 23° |
| 2026-05-09 00:44 | 15.22907 | 120.57979 | 2669 ft | 165 kts | 23° |
| 2026-05-09 00:44 | 15.23954 | 120.58399 | 3500 ft | 157 kts | 28° |
| 2026-05-09 00:44 | 15.24624 | 120.59207 | 4163 ft | 153 kts | 82° |
| 2026-05-09 00:45 | 15.24313 | 120.60233 | 4846 ft | 159 kts | 135° |
| 2026-05-09 00:45 | 15.23307 | 120.60708 | 5540 ft | 160 kts | 155° |
| 2026-05-09 00:45 | 15.22484 | 120.61441 | 5844 ft | 163 kts | 127° |
| 2026-05-09 00:45 | 15.21527 | 120.62175 | 6032 ft | 182 kts | 148° |
| 2026-05-09 00:46 | 15.20657 | 120.63106 | 6341 ft | 182 kts | 119° |
| 2026-05-09 00:46 | 15.19986 | 120.64228 | 6761 ft | 182 kts | 121° |
| 2026-05-09 00:46 | 15.19255 | 120.65313 | 7145 ft | 186 kts | 127° |
| 2026-05-09 00:46 | 15.18480 | 120.66393 | 7561 ft | 187 kts | 122° |
| 2026-05-09 00:47 | 15.17735 | 120.67502 | 7936 ft | 188 kts | 127° |
| 2026-05-09 00:47 | 15.16870 | 120.68532 | 8349 ft | 190 kts | 125° |
| 2026-05-09 00:47 | 15.16110 | 120.69650 | 8747 ft | 190 kts | 122° |
| 2026-05-09 00:47 | 15.15294 | 120.70734 | 9127 ft | 192 kts | 129° |
| 2026-05-09 00:48 | 15.14479 | 120.71829 | 9504 ft | 192 kts | 126° |
| 2026-05-09 00:48 | 15.13351 | 120.72556 | 9813 ft | 201 kts | 168° |
| 2026-05-09 00:48 | 15.11938 | 120.72511 | 10119 ft | 206 kts | 185° |
| 2026-05-09 00:48 | 15.10524 | 120.72215 | 10373 ft | 208 kts | 190° |
| 2026-05-09 00:49 | 15.09118 | 120.71847 | 10627 ft | 209 kts | 191° |
| 2026-05-09 00:49 | 15.07710 | 120.71470 | 10894 ft | 209 kts | 191° |
| 2026-05-09 00:49 | 15.06315 | 120.71104 | 11159 ft | 210 kts | 191° |
| 2026-05-09 00:49 | 15.04887 | 120.70740 | 11437 ft | 211 kts | 191° |
| 2026-05-09 00:50 | 15.03457 | 120.70384 | 11684 ft | 212 kts | 190° |
| 2026-05-09 00:50 | 15.02641 | 120.70186 | 11826 ft | 212 kts | 191° |
| 2026-05-09 00:50 | 15.01414 | 120.69889 | 12048 ft | 213 kts | 191° |
| 2026-05-09 00:50 | 14.99962 | 120.69549 | 12302 ft | 214 kts | 190° |
| 2026-05-09 00:51 | 14.98504 | 120.69215 | 12556 ft | 215 kts | 190° |
| 2026-05-09 00:51 | 14.97039 | 120.68883 | 12813 ft | 216 kts | 190° |
| 2026-05-09 00:51 | 14.95572 | 120.68551 | 13033 ft | 216 kts | 190° |
| 2026-05-09 00:51 | 14.94118 | 120.68212 | 13247 ft | 217 kts | 191° |
| 2026-05-09 00:52 | 14.92638 | 120.67863 | 13477 ft | 218 kts | 191° |
| 2026-05-09 00:52 | 14.91152 | 120.67512 | 13679 ft | 219 kts | 191° |
| 2026-05-09 00:52 | 14.89669 | 120.67159 | 13874 ft | 219 kts | 191° |
| 2026-05-09 00:52 | 14.88176 | 120.66803 | 14057 ft | 220 kts | 191° |
| 2026-05-09 00:53 | 14.86678 | 120.66447 | 14221 ft | 221 kts | 191° |
| 2026-05-09 00:53 | 14.85176 | 120.66094 | 14394 ft | 222 kts | 191° |
| 2026-05-09 00:53 | 14.83910 | 120.65798 | 14529 ft | 222 kts | 191° |
| 2026-05-09 00:53 | 14.82395 | 120.65478 | 14692 ft | 222 kts | 186° |
| 2026-05-09 00:54 | 14.80851 | 120.65339 | 14845 ft | 223 kts | 181° |
| 2026-05-09 00:54 | 14.79304 | 120.65282 | 15013 ft | 223 kts | 180° |
| 2026-05-09 00:54 | 14.77751 | 120.65234 | 15172 ft | 224 kts | 180° |
| 2026-05-09 00:54 | 14.76190 | 120.65177 | 15334 ft | 225 kts | 180° |
| 2026-05-09 00:55 | 14.74628 | 120.65092 | 15472 ft | 226 kts | 181° |
| 2026-05-09 00:55 | 14.73056 | 120.65001 | 15621 ft | 226 kts | 181° |
| 2026-05-09 00:55 | 14.71499 | 120.64908 | 15763 ft | 227 kts | 181° |
| 2026-05-09 00:55 | 14.69917 | 120.64814 | 15843 ft | 230 kts | 181° |
| 2026-05-09 00:56 | 14.68299 | 120.64716 | 15892 ft | 235 kts | 181° |
| 2026-05-09 00:56 | 14.66653 | 120.64619 | 15912 ft | 240 kts | 181° |
| 2026-05-09 00:56 | 14.64970 | 120.64517 | 15920 ft | 244 kts | 181° |
| 2026-05-09 00:56 | 14.63261 | 120.64415 | 15929 ft | 248 kts | 181° |
| 2026-05-09 00:57 | 14.61528 | 120.64312 | 15926 ft | 251 kts | 181° |
| 2026-05-09 00:57 | 14.59771 | 120.64206 | 15924 ft | 254 kts | 181° |
| 2026-05-09 00:57 | 14.58000 | 120.64100 | 15927 ft | 256 kts | 181° |
| 2026-05-09 00:57 | 14.56217 | 120.63993 | 15927 ft | 258 kts | 181° |
| 2026-05-09 00:58 | 14.54424 | 120.63886 | 15924 ft | 259 kts | 181° |
| 2026-05-09 00:58 | 14.52623 | 120.63779 | 15924 ft | 260 kts | 181° |
| 2026-05-09 00:58 | 14.50816 | 120.63669 | 15924 ft | 261 kts | 181° |
| 2026-05-09 00:58 | 14.49001 | 120.63561 | 15923 ft | 261 kts | 181° |
| 2026-05-09 00:59 | 14.47183 | 120.63454 | 15926 ft | 262 kts | 181° |
| 2026-05-09 00:59 | 14.45364 | 120.63346 | 15930 ft | 262 kts | 181° |
| 2026-05-09 00:59 | 14.43565 | 120.63238 | 15926 ft | 263 kts | 181° |
| 2026-05-09 00:59 | 14.41740 | 120.63127 | 15931 ft | 263 kts | 181° |
| 2026-05-09 01:00 | 14.39910 | 120.63018 | 15933 ft | 263 kts | 181° |
| 2026-05-09 01:00 | 14.38078 | 120.62910 | 15927 ft | 264 kts | 181° |
| 2026-05-09 01:00 | 14.36246 | 120.62801 | 15932 ft | 264 kts | 181° |
| 2026-05-09 01:00 | 14.34411 | 120.62692 | 15929 ft | 264 kts | 181° |
| 2026-05-09 01:01 | 14.32572 | 120.62580 | 15929 ft | 264 kts | 181° |
| 2026-05-09 01:01 | 14.30731 | 120.62470 | 15932 ft | 265 kts | 180° |
| 2026-05-09 01:01 | 14.28894 | 120.62361 | 15931 ft | 265 kts | 180° |
| 2026-05-09 01:01 | 14.27052 | 120.62252 | 15936 ft | 265 kts | 181° |
| 2026-05-09 01:02 | 14.25212 | 120.62142 | 15934 ft | 265 kts | 180° |
| 2026-05-09 01:02 | 14.23366 | 120.62032 | 15933 ft | 266 kts | 181° |
| 2026-05-09 01:02 | 14.21522 | 120.61923 | 15936 ft | 266 kts | 180° |
| 2026-05-09 01:02 | 14.19698 | 120.61812 | 15940 ft | 266 kts | 181° |
| 2026-05-09 01:03 | 14.17843 | 120.61699 | 15939 ft | 267 kts | 181° |
| 2026-05-09 01:03 | 14.15981 | 120.61590 | 15932 ft | 267 kts | 181° |
| 2026-05-09 01:03 | 14.14123 | 120.61478 | 15938 ft | 268 kts | 181° |
| 2026-05-09 01:03 | 14.12262 | 120.61369 | 15932 ft | 268 kts | 180° |
| 2026-05-09 01:04 | 14.10399 | 120.61259 | 15928 ft | 268 kts | 181° |
| 2026-05-09 01:04 | 14.08536 | 120.61148 | 15924 ft | 267 kts | 181° |
| 2026-05-09 01:04 | 14.06679 | 120.61036 | 15928 ft | 267 kts | 181° |
| 2026-05-09 01:04 | 14.04830 | 120.60926 | 15933 ft | 266 kts | 181° |
| 2026-05-09 01:05 | 14.02982 | 120.60817 | 15935 ft | 265 kts | 181° |
| 2026-05-09 01:05 | 14.01139 | 120.60706 | 15935 ft | 265 kts | 181° |
| 2026-05-09 01:05 | 13.97455 | 120.60488 | 15935 ft | 265 kts | 181° |
| 2026-05-09 01:06 | 13.95615 | 120.60376 | 15936 ft | 265 kts | 181° |
| 2026-05-09 01:06 | 13.93770 | 120.60267 | 15930 ft | 265 kts | 181° |
| 2026-05-09 01:06 | 13.91935 | 120.60159 | 15932 ft | 265 kts | 181° |
| 2026-05-09 01:06 | 13.90118 | 120.60050 | 15933 ft | 265 kts | 181° |
| 2026-05-09 01:07 | 13.88256 | 120.59939 | 15933 ft | 264 kts | 181° |
| 2026-05-09 01:07 | 13.86444 | 120.59833 | 15934 ft | 264 kts | 181° |
| 2026-05-09 01:07 | 13.84607 | 120.59722 | 15934 ft | 264 kts | 180° |
| 2026-05-09 01:07 | 13.82774 | 120.59614 | 15932 ft | 264 kts | 180° |
| 2026-05-09 01:08 | 13.80937 | 120.59505 | 15931 ft | 264 kts | 181° |
| 2026-05-09 01:08 | 13.79103 | 120.59396 | 15930 ft | 264 kts | 180° |
| 2026-05-09 01:08 | 13.77271 | 120.59287 | 15934 ft | 264 kts | 180° |
| 2026-05-09 01:08 | 13.75437 | 120.59176 | 15930 ft | 264 kts | 180° |
| 2026-05-09 01:09 | 13.73601 | 120.59066 | 15930 ft | 264 kts | 180° |
| 2026-05-09 01:09 | 13.71765 | 120.58959 | 15930 ft | 264 kts | 180° |
| 2026-05-09 01:09 | 13.69929 | 120.58852 | 15929 ft | 264 kts | 180° |
| 2026-05-09 01:09 | 13.68095 | 120.58743 | 15936 ft | 264 kts | 180° |
| 2026-05-09 01:10 | 13.66260 | 120.58634 | 15934 ft | 264 kts | 180° |
| 2026-05-09 01:10 | 13.64423 | 120.58526 | 15933 ft | 264 kts | 180° |
| 2026-05-09 01:10 | 13.62589 | 120.58420 | 15933 ft | 264 kts | 180° |
| 2026-05-09 01:10 | 13.60751 | 120.58311 | 15931 ft | 264 kts | 180° |
| 2026-05-09 01:11 | 13.58985 | 120.57954 | 15932 ft | 265 kts | 200° |
| 2026-05-09 01:11 | 13.57313 | 120.57124 | 15932 ft | 268 kts | 205° |
| 2026-05-09 01:11 | 13.55661 | 120.56222 | 15931 ft | 269 kts | 205° |
| 2026-05-09 01:11 | 13.54004 | 120.55333 | 15932 ft | 269 kts | 204° |
| 2026-05-09 01:12 | 13.52318 | 120.54493 | 15932 ft | 269 kts | 202° |
| 2026-05-09 01:12 | 13.50620 | 120.53684 | 15928 ft | 269 kts | 202° |
| 2026-05-09 01:12 | 13.48923 | 120.52872 | 15938 ft | 269 kts | 202° |
| 2026-05-09 01:12 | 13.47225 | 120.52054 | 15939 ft | 271 kts | 202° |
| 2026-05-09 01:13 | 13.45515 | 120.51230 | 15927 ft | 272 kts | 202° |
| 2026-05-09 01:13 | 13.43819 | 120.50414 | 15918 ft | 272 kts | 202° |
| 2026-05-09 01:13 | 13.42104 | 120.49589 | 15924 ft | 272 kts | 202° |
| 2026-05-09 01:13 | 13.40390 | 120.48767 | 15924 ft | 272 kts | 202° |
| 2026-05-09 01:14 | 13.38674 | 120.47940 | 15923 ft | 272 kts | 203° |
| 2026-05-09 01:14 | 13.36959 | 120.47113 | 15925 ft | 272 kts | 203° |
| 2026-05-09 01:14 | 13.35241 | 120.46288 | 15918 ft | 273 kts | 203° |
| 2026-05-09 01:14 | 13.33525 | 120.45462 | 15914 ft | 272 kts | 203° |
| 2026-05-09 01:15 | 13.31811 | 120.44636 | 15917 ft | 271 kts | 202° |
| 2026-05-09 01:15 | 13.30053 | 120.43971 | 15915 ft | 268 kts | 193° |
| 2026-05-09 01:15 | 13.28252 | 120.43508 | 15918 ft | 267 kts | 191° |
| 2026-05-09 01:15 | 13.26450 | 120.43067 | 15919 ft | 267 kts | 191° |
| 2026-05-09 01:16 | 13.24653 | 120.42590 | 15918 ft | 267 kts | 192° |
| 2026-05-09 01:16 | 13.22863 | 120.42072 | 15918 ft | 267 kts | 193° |
| 2026-05-09 01:16 | 13.21073 | 120.41550 | 15919 ft | 267 kts | 193° |
| 2026-05-09 01:17 | 13.17496 | 120.40512 | 15917 ft | 267 kts | 193° |
| 2026-05-09 01:17 | 13.15707 | 120.39994 | 15919 ft | 267 kts | 193° |
| 2026-05-09 01:17 | 13.13913 | 120.39475 | 15915 ft | 267 kts | 193° |
| 2026-05-09 01:17 | 13.12124 | 120.38955 | 15915 ft | 267 kts | 193° |
| 2026-05-09 01:18 | 13.10331 | 120.38436 | 15917 ft | 267 kts | 193° |
| 2026-05-09 01:18 | 13.08542 | 120.37918 | 15914 ft | 267 kts | 193° |
| 2026-05-09 01:18 | 13.06749 | 120.37400 | 15910 ft | 267 kts | 193° |
| 2026-05-09 01:18 | 13.04983 | 120.36888 | 15911 ft | 267 kts | 193° |
| 2026-05-09 01:19 | 13.03190 | 120.36369 | 15913 ft | 267 kts | 193° |
| 2026-05-09 01:19 | 13.01400 | 120.35851 | 15911 ft | 267 kts | 193° |
| 2026-05-09 01:19 | 12.99612 | 120.35332 | 15913 ft | 267 kts | 193° |
| 2026-05-09 01:19 | 12.97821 | 120.34814 | 15912 ft | 267 kts | 193° |
| 2026-05-09 01:20 | 12.96029 | 120.34296 | 15910 ft | 267 kts | 193° |
| 2026-05-09 01:20 | 12.94236 | 120.33778 | 15910 ft | 268 kts | 193° |
| 2026-05-09 01:20 | 12.92447 | 120.33261 | 15912 ft | 268 kts | 193° |
| 2026-05-09 01:20 | 12.90642 | 120.32738 | 15742 ft | 275 kts | 193° |
| 2026-05-09 01:21 | 12.88775 | 120.32193 | 15414 ft | 281 kts | 193° |
| 2026-05-09 01:21 | 12.86896 | 120.31639 | 15089 ft | 282 kts | 193° |
| 2026-05-09 01:21 | 12.85006 | 120.31075 | 14776 ft | 283 kts | 193° |
| 2026-05-09 01:21 | 12.83116 | 120.30519 | 14493 ft | 282 kts | 193° |
| 2026-05-09 01:22 | 12.81234 | 120.29976 | 14235 ft | 281 kts | 192° |
| 2026-05-09 01:22 | 12.79351 | 120.29436 | 13963 ft | 281 kts | 192° |
| 2026-05-09 01:22 | 12.77468 | 120.28896 | 13687 ft | 280 kts | 192° |
| 2026-05-09 01:22 | 12.75589 | 120.28355 | 13384 ft | 280 kts | 192° |
| 2026-05-09 01:23 | 12.73715 | 120.27815 | 13083 ft | 280 kts | 192° |
| 2026-05-09 01:23 | 12.71842 | 120.27272 | 12784 ft | 279 kts | 193° |
| 2026-05-09 01:23 | 12.69978 | 120.26733 | 12489 ft | 279 kts | 193° |
| 2026-05-09 01:23 | 12.68116 | 120.26194 | 12195 ft | 278 kts | 193° |
| 2026-05-09 01:24 | 12.66255 | 120.25657 | 11904 ft | 277 kts | 193° |
| 2026-05-09 01:24 | 12.64400 | 120.25121 | 11617 ft | 277 kts | 193° |
| 2026-05-09 01:24 | 12.62550 | 120.24588 | 11329 ft | 276 kts | 193° |
| 2026-05-09 01:24 | 12.60691 | 120.24050 | 10914 ft | 279 kts | 193° |
| 2026-05-09 01:25 | 12.58833 | 120.23510 | 10491 ft | 275 kts | 193° |
| 2026-05-09 01:25 | 12.57001 | 120.22980 | 10075 ft | 272 kts | 193° |
| 2026-05-09 01:25 | 12.55184 | 120.22457 | 9651 ft | 269 kts | 193° |
| 2026-05-09 01:25 | 12.53387 | 120.21940 | 9197 ft | 267 kts | 193° |
| 2026-05-09 01:26 | 12.51605 | 120.21427 | 8752 ft | 265 kts | 193° |
| 2026-05-09 01:26 | 12.49862 | 120.20924 | 8391 ft | 261 kts | 193° |
| 2026-05-09 01:26 | 12.48139 | 120.20427 | 8096 ft | 254 kts | 193° |
| 2026-05-09 01:26 | 12.46432 | 120.19934 | 7808 ft | 249 kts | 193° |
| 2026-05-09 01:27 | 12.44796 | 120.19463 | 7525 ft | 246 kts | 193° |
| 2026-05-09 01:27 | 12.43159 | 120.18991 | 7242 ft | 243 kts | 192° |
| 2026-05-09 01:27 | 12.41536 | 120.18526 | 6960 ft | 241 kts | 192° |
| 2026-05-09 01:27 | 12.39928 | 120.18062 | 6687 ft | 239 kts | 192° |
| 2026-05-09 01:28 | 12.38333 | 120.17603 | 6413 ft | 238 kts | 192° |
| 2026-05-09 01:28 | 12.36741 | 120.17143 | 6121 ft | 236 kts | 192° |
| 2026-05-09 01:28 | 12.35161 | 120.16688 | 5830 ft | 235 kts | 192° |
| 2026-05-09 01:28 | 12.33589 | 120.16237 | 5540 ft | 235 kts | 192° |
| 2026-05-09 01:29 | 12.32017 | 120.15783 | 5252 ft | 234 kts | 192° |
| 2026-05-09 01:29 | 12.30448 | 120.15332 | 4961 ft | 233 kts | 192° |
| 2026-05-09 01:29 | 12.28890 | 120.14882 | 4676 ft | 232 kts | 192° |
| 2026-05-09 01:29 | 12.27333 | 120.14435 | 4389 ft | 232 kts | 192° |
| 2026-05-09 01:30 | 12.26303 | 120.14141 | 4194 ft | 232 kts | 192° |
| 2026-05-09 01:30 | 12.24750 | 120.13697 | 3904 ft | 232 kts | 192° |
| 2026-05-09 01:30 | 12.23212 | 120.13256 | 3704 ft | 227 kts | 192° |
| 2026-05-09 01:30 | 12.21230 | 120.12682 | 3479 ft | 218 kts | 192° |
| 2026-05-09 01:31 | 12.20254 | 120.12397 | 3362 ft | 213 kts | 192° |
| 2026-05-09 01:31 | 12.18847 | 120.11988 | 3194 ft | 207 kts | 192° |
| 2026-05-09 01:31 | 12.17487 | 120.11574 | 3021 ft | 200 kts | 198° |
| 2026-05-09 01:31 | 12.16468 | 120.10635 | 2841 ft | 204 kts | 242° |
| 2026-05-09 01:32 | 12.16099 | 120.09257 | 2700 ft | 200 kts | 258° |
| 2026-05-09 01:32 | 12.15826 | 120.07862 | 2548 ft | 198 kts | 259° |
| 2026-05-09 01:32 | 12.15591 | 120.06541 | 2417 ft | 182 kts | 259° |
| 2026-05-09 01:32 | 12.15382 | 120.05286 | 2300 ft | 181 kts | 261° |
| 2026-05-09 01:33 | 12.15185 | 120.04026 | 2263 ft | 176 kts | 261° |
| 2026-05-09 01:33 | 12.14721 | 120.02940 | 2096 ft | 163 kts | 220° |
| 2026-05-09 01:33 | 12.13765 | 120.02594 | 2035 ft | 137 kts | 172° |
| 2026-05-09 01:33 | 12.13046 | 120.03019 | 1977 ft | 118 kts | 109° |
| 2026-05-09 01:34 | 12.12978 | 120.03792 | 1997 ft | 103 kts | 96° |
| 2026-05-09 01:34 | 12.12721 | 120.04489 | 1770 ft | 107 kts | 114° |
| 2026-05-09 01:34 | 12.12381 | 120.05166 | 1630 ft | 110 kts | 112° |
| 2026-05-09 01:34 | 12.12078 | 120.05884 | 1422 ft | 111 kts | 109° |
| 2026-05-09 01:35 | 12.11862 | 120.06631 | 1193 ft | 111 kts | 102° |
| 2026-05-09 01:35 | 12.11853 | 120.07415 | 928 ft | 109 kts | 80° |
| 2026-05-09 01:35 | 12.12029 | 120.08166 | 659 ft | 107 kts | 88° |
| 2026-05-09 01:35 | 12.12092 | 120.08926 | 383 ft | 106 kts | 87° |
| 2026-05-09 01:36 | 12.12151 | 120.09643 | 193 ft | 93 kts | 84° |
| 2026-05-09 01:36 | 12.12196 | 120.10126 | 180 ft | 28 kts | 83° |
| 2026-05-09 01:36 | 12.12200 | 120.10225 | 178 ft | 11 kts | 93° |
| 2026-05-09 01:36 | 12.12204 | 120.10256 | 178 ft | 1 kts | 10° |
| 2026-05-09 01:37 | 12.12204 | 120.10211 | 179 ft | 17 kts | 265° |
| 2026-05-09 01:37 | 12.12195 | 120.10121 | 180 ft | 14 kts | 265° |
| 2026-05-09 01:37 | 12.12178 | 120.10026 | 181 ft | 12 kts | 236° |
| 2026-05-09 01:37 | 12.12125 | 120.09979 | 181 ft | 6 kts | 223° |
| 2026-05-09 01:38 | 12.12102 | 120.09961 | 181 ft | 6 kts | 201° |
| 2026-05-09 01:38 | 12.12078 | 120.09960 | 181 ft | 5 kts | 177° |
| 2026-05-09 01:38 | 12.12052 | 120.09963 | 182 ft | 2 kts | 174° |
| 2026-05-09 01:38 | 12.12050 | 120.09963 | 182 ft | 0 kts | 174° |